Time;durP1;ratioP1;P1;durP2;ratioP2;P2;SDS_P1;SDS_P2;PMS_P1;PMS_P2;Temp;Humidity;BMP_temperature;BMP_pressure;BME280_temperature;BME280_humidity;BME280_pressure;Samples;Min_cycle;Max_cycle;Signal;HPM_P1;HPM_P2
2022/08/28 00:02:45;;;;;;;9.77;2.72;;;;;;;14.23;100.00;101852.34;10397288;28;20076;-85
2022/08/28 00:07:45;;;;;;;5.03;2.25;;;;;;;14.06;100.00;101848.78;10370431;28;20029;-84
2022/08/28 00:12:46;;;;;;;11.82;2.10;;;;;;;13.97;100.00;101869.66;10377531;28;20105;-85
2022/08/28 00:17:47;;;;;;;8.65;2.53;;;;;;;13.90;100.00;101875.38;10377596;28;20101;-80
2022/08/28 00:22:48;;;;;;;8.05;2.65;;;;;;;13.86;100.00;101897.19;10393930;28;20068;-85
2022/08/28 00:27:53;;;;;;;11.23;2.33;;;;;;;13.65;100.00;101873.03;10370377;28;20034;-84
2022/08/28 00:32:57;;;;;;;11.38;2.70;;;;;;;13.60;100.00;101872.94;10378328;28;20053;-84
2022/08/28 00:37:58;;;;;;;7.72;1.90;;;;;;;13.57;100.00;101870.69;10419364;28;20033;-85
2022/08/28 00:43:00;;;;;;;8.57;2.38;;;;;;;13.35;100.00;101843.72;10435061;28;20044;-85
2022/08/28 00:48:01;;;;;;;5.68;2.15;;;;;;;13.20;100.00;101849.81;10400631;28;20040;-85
2022/08/28 00:53:01;;;;;;;11.63;2.38;;;;;;;13.23;100.00;101868.69;10402869;28;20029;-85
2022/08/28 00:58:02;;;;;;;14.55;2.75;;;;;;;13.20;100.00;101868.31;10402942;28;20033;-85
2022/08/28 01:03:04;;;;;;;9.75;2.20;;;;;;;13.10;100.00;101861.53;10379672;28;20049;-86
2022/08/28 01:08:04;;;;;;;9.45;2.03;;;;;;;13.21;100.00;101872.75;10381986;28;20106;-86
2022/08/28 01:13:05;;;;;;;13.15;3.30;;;;;;;13.03;100.00;101847.00;10400397;28;20053;-86
2022/08/28 01:18:08;;;;;;;5.75;2.33;;;;;;;12.52;100.00;101752.88;10403702;28;25391;-85
2022/08/28 01:23:36;;;;;;;9.13;2.03;;;;;;;13.31;100.00;101875.75;10412612;28;20092;-85
2022/08/28 01:28:37;;;;;;;11.32;4.93;;;;;;;13.26;100.00;101875.63;10411417;28;20048;-86
2022/08/28 01:33:38;;;;;;;10.05;2.58;;;;;;;13.06;100.00;101860.34;10378544;28;20030;-85
2022/08/28 01:38:39;;;;;;;10.45;3.15;;;;;;;12.97;100.00;101861.81;10453617;28;20471;-83
2022/08/28 01:43:40;;;;;;;11.88;2.28;;;;;;;12.84;100.00;101837.25;10433983;28;20095;-87
2022/08/28 01:48:42;;;;;;;11.50;2.10;;;;;;;12.89;100.00;101859.44;10407239;28;20055;-86
2022/08/28 01:53:42;;;;;;;9.65;2.78;;;;;;;12.80;100.00;101852.63;10419352;28;20041;-87
2022/08/28 01:58:43;;;;;;;13.57;3.28;;;;;;;12.25;100.00;101782.16;10419573;28;20040;-86
2022/08/28 02:03:44;;;;;;;6.40;3.08;;;;;;;12.65;100.00;101864.19;10407715;28;20049;-86
2022/08/28 02:08:45;;;;;;;10.95;2.33;;;;;;;12.43;100.00;101839.16;10400560;28;20344;-87
2022/08/28 02:13:46;;;;;;;11.15;2.40;;;;;;;12.70;100.00;101869.81;10331062;28;20037;-85
2022/08/28 02:18:47;;;;;;;11.48;3.00;;;;;;;12.79;100.00;101881.31;10376346;28;20313;-87
2022/08/28 02:23:48;;;;;;;11.95;2.30;;;;;;;12.90;100.00;101874.94;10363828;28;20037;-85
2022/08/28 02:28:48;;;;;;;8.65;2.13;;;;;;;12.84;100.00;101851.06;10326458;28;20069;-85
2022/08/28 02:33:49;;;;;;;11.10;2.83;;;;;;;12.94;100.00;101867.84;10344612;28;20042;-86
2022/08/28 02:38:51;;;;;;;8.32;3.00;;;;;;;13.07;100.00;101872.22;10355160;28;20088;-85
2022/08/28 02:43:52;;;;;;;12.45;2.42;;;;;;;13.07;100.00;101875.00;10344576;28;20049;-84
2022/08/28 02:48:52;;;;;;;10.57;2.92;;;;;;;13.06;100.00;101876.94;10359977;28;20045;-86
2022/08/28 02:53:53;;;;;;;7.40;2.10;;;;;;;13.00;100.00;101850.28;10326917;28;20030;-87
2022/08/28 02:58:54;;;;;;;5.82;2.50;;;;;;;13.06;100.00;101860.34;10382039;28;20499;-88
2022/08/28 03:03:55;;;;;;;7.97;2.45;;;;;;;13.09;100.00;101870.06;10399969;28;20046;-86
2022/08/28 03:08:55;;;;;;;10.45;2.72;;;;;;;12.98;100.00;101846.06;10383540;28;20057;-86
2022/08/28 03:13:56;;;;;;;14.90;3.75;;;;;;;12.91;100.00;101852.56;10398876;28;21131;-87
2022/08/28 03:18:56;;;;;;;13.23;2.38;;;;;;;13.04;100.00;101890.16;10382413;28;20038;-87
2022/08/28 03:23:57;;;;;;;7.95;2.13;;;;;;;12.74;100.00;101848.09;10365689;28;20099;-87
2022/08/28 03:28:58;;;;;;;7.13;2.55;;;;;;;12.96;100.00;101882.25;10380270;28;20040;-87
2022/08/28 03:33:58;;;;;;;10.35;3.25;;;;;;;12.78;100.00;101861.16;10342921;28;20073;-87
2022/08/28 03:39:00;;;;;;;11.02;2.80;;;;;;;12.87;100.00;101894.75;10364730;28;20440;-86
2022/08/28 03:44:01;;;;;;;5.88;2.20;;;;;;;12.83;100.00;101882.53;10366000;28;20064;-85
2022/08/28 03:49:02;;;;;;;9.05;2.60;;;;;;;12.66;100.00;101852.88;10381242;28;20448;-86
2022/08/28 03:54:03;;;;;;;6.85;2.10;;;;;;;12.80;100.00;101894.09;10368975;28;20043;-85
2022/08/28 03:59:04;;;;;;;11.82;2.05;;;;;;;12.64;100.00;101885.44;10340978;28;20060;-85
2022/08/28 04:04:04;;;;;;;12.30;2.60;;;;;;;12.61;100.00;101880.44;10358828;28;20045;-79
2022/08/28 04:09:05;;;;;;;10.13;2.85;;;;;;;12.45;100.00;101883.94;10362555;28;20531;-87
2022/08/28 04:14:05;;;;;;;7.03;2.05;;;;;;;12.52;100.00;101898.44;10377797;28;20059;-85
2022/08/28 04:19:06;;;;;;;8.10;2.67;;;;;;;12.37;100.00;101906.41;10402639;28;20033;-87
2022/08/28 04:24:06;;;;;;;7.43;2.20;;;;;;;12.38;100.00;101903.41;10412508;28;22279;-94
2022/08/28 04:29:08;;;;;;;10.07;2.08;;;;;;;12.21;100.00;101869.31;10376208;28;20044;-94
2022/08/28 04:34:09;;;;;;;8.48;2.60;;;;;;;12.49;100.00;101899.78;10370190;28;20042;-91
2022/08/28 04:39:10;;;;;;;9.98;2.17;;;;;;;12.32;100.00;101883.09;10396634;28;20037;-90
2022/08/28 04:44:11;;;;;;;10.35;3.78;;;;;;;12.41;100.00;101913.94;10380306;28;20040;-90
2022/08/28 04:49:14;;;;;;;9.60;2.33;;;;;;;12.23;100.00;101894.75;10404638;28;20049;-92
2022/08/28 04:54:15;;;;;;;7.70;2.10;;;;;;;12.25;100.00;101906.38;10349749;28;20100;-92
2022/08/28 04:59:15;;;;;;;9.15;2.40;;;;;;;12.30;100.00;101923.94;10346175;28;20456;-91
2022/08/28 05:04:17;;;;;;;13.88;2.65;;;;;;;12.30;100.00;101923.09;10337558;28;20056;-91
2022/08/28 05:09:18;;;;;;;8.18;2.00;;;;;;;12.32;100.00;101921.75;10366157;28;20038;-89
2022/08/28 05:14:20;;;;;;;7.82;2.00;;;;;;;12.23;100.00;101900.28;10313380;28;20030;-90
2022/08/28 05:19:22;;;;;;;6.10;1.75;;;;;;;12.37;100.00;101920.19;10339718;28;20045;-91
2022/08/28 05:24:24;;;;;;;6.53;1.73;;;;;;;12.44;100.00;101923.66;10369274;28;20051;-90
2022/08/28 05:29:24;;;;;;;6.95;1.73;;;;;;;12.61;100.00;101952.25;10353470;28;20047;-89
2022/08/28 05:34:25;;;;;;;10.23;2.03;;;;;;;12.69;100.00;101921.50;10360761;28;20561;-90
2022/08/28 05:39:25;;;;;;;7.82;1.90;;;;;;;12.74;100.00;101906.94;10351529;28;20038;-90
2022/08/28 05:44:26;;;;;;;7.18;1.77;;;;;;;13.13;100.00;101935.66;10376673;28;20041;-90
2022/08/28 05:49:27;;;;;;;7.28;1.80;;;;;;;13.22;100.00;101925.06;10381447;28;20055;-87
2022/08/28 05:54:27;;;;;;;8.77;1.73;;;;;;;13.55;100.00;101928.19;10368212;28;20045;-89
2022/08/28 05:59:28;;;;;;;12.32;2.35;;;;;;;13.92;100.00;101940.47;10360183;28;20044;-88
2022/08/28 06:04:29;;;;;;;8.35;1.67;;;;;;;14.10;100.00;101931.09;10347287;28;20057;-89
2022/08/28 06:09:29;;;;;;;5.70;1.92;;;;;;;14.26;100.00;101945.16;10369006;28;20045;-85
2022/08/28 06:14:30;;;;;;;6.68;1.90;;;;;;;14.21;100.00;101925.72;10345007;28;20064;-90
2022/08/28 06:19:32;;;;;;;6.00;1.85;;;;;;;14.34;100.00;101944.75;10325029;28;20033;-89
2022/08/28 06:24:33;;;;;;;8.85;2.00;;;;;;;14.47;100.00;101919.47;10337576;28;20050;-91
2022/08/28 06:29:33;;;;;;;8.13;2.08;;;;;;;14.77;100.00;101950.66;10324917;28;20037;-88
2022/08/28 06:34:34;;;;;;;6.70;1.55;;;;;;;14.72;100.00;101960.59;10331273;28;20120;-89
2022/08/28 06:39:35;;;;;;;10.55;1.70;;;;;;;14.59;100.00;101924.91;10402063;28;20101;-86
2022/08/28 06:44:37;;;;;;;10.15;1.63;;;;;;;14.69;100.00;101943.63;10382597;28;20045;-90
2022/08/28 06:49:37;;;;;;;4.18;1.20;;;;;;;15.20;100.00;101943.47;10381545;28;20037;-88
2022/08/28 06:54:38;;;;;;;9.13;1.50;;;;;;;15.77;100.00;101958.78;10381679;28;20424;-85
2022/08/28 06:59:39;;;;;;;7.30;1.63;;;;;;;16.16;100.00;101931.63;10373398;28;20041;-89
2022/08/28 07:04:39;;;;;;;8.18;1.13;;;;;;;16.64;100.00;101945.56;10327846;28;20038;-89
2022/08/28 07:09:40;;;;;;;7.45;2.03;;;;;;;16.84;100.00;101939.31;10353888;28;20056;-81
2022/08/28 07:14:40;;;;;;;6.80;1.95;;;;;;;17.20;100.00;101936.66;10367284;28;20055;-92
2022/08/28 07:19:41;;;;;;;9.45;1.17;;;;;;;17.41;100.00;101943.16;10384515;28;20034;-92
2022/08/28 07:24:41;;;;;;;6.95;1.65;;;;;;;17.51;100.00;101932.88;10375881;28;20140;-87
2022/08/28 07:29:42;;;;;;;7.18;2.05;;;;;;;17.69;100.00;101945.44;10357854;28;20516;-90
2022/08/28 07:34:42;;;;;;;5.22;1.25;;;;;;;17.71;100.00;101922.88;10384132;28;20049;-82
2022/08/28 07:39:43;;;;;;;9.10;2.05;;;;;;;17.90;100.00;101951.91;10378906;28;20034;-88
2022/08/28 07:44:50;;;;;;;8.85;1.30;;;;;;;18.06;100.00;101932.38;10365116;28;20042;-86
2022/08/28 07:49:52;;;;;;;;;;;;;;;18.41;100.00;101942.66;10385414;28;20464;-90
2022/08/28 07:54:53;;;;;;;5.68;1.10;;;;;;;18.39;100.00;101941.28;10401018;28;19948;-88
2022/08/28 07:59:53;;;;;;;13.93;1.88;;;;;;;18.23;100.00;101946.88;10367454;28;20033;-90
2022/08/28 08:04:54;;;;;;;9.52;1.60;;;;;;;18.88;99.32;101954.59;10360808;28;20046;-86
2022/08/28 08:09:54;;;;;;;9.75;1.80;;;;;;;18.91;96.17;101967.94;10374923;28;20030;-87
2022/08/28 08:14:55;;;;;;;10.80;2.75;;;;;;;18.89;97.29;101967.41;10341035;28;20045;-85
2022/08/28 08:19:55;;;;;;;8.57;1.90;;;;;;;19.52;95.88;101948.13;10373715;28;20038;-82
2022/08/28 08:24:56;;;;;;;5.18;1.42;;;;;;;19.80;95.46;101962.47;10377774;28;20040;-81
2022/08/28 08:29:56;;;;;;;5.50;1.33;;;;;;;19.22;94.98;101956.66;10415670;28;20052;-82
2022/08/28 08:34:58;;;;;;;8.15;1.80;;;;;;;18.51;92.63;101966.91;10405363;28;20045;-79
2022/08/28 08:39:58;;;;;;;5.90;2.13;;;;;;;18.28;94.67;101969.16;10410229;28;20045;-83
2022/08/28 08:45:02;;;;;;;5.50;1.17;;;;;;;19.11;92.65;101975.41;10384107;28;20048;-83
2022/08/28 08:50:06;;;;;;;5.22;1.10;;;;;;;19.70;86.60;101948.56;10419505;28;20056;-82
2022/08/28 08:55:23;;;;;;;8.30;2.10;;;;;;;19.81;86.22;101966.97;10402299;28;20396;-83
2022/08/28 09:00:24;;;;;;;;;;;;;;;19.72;86.42;101977.06;10419359;28;20053;-81
2022/08/28 09:05:38;;;;;;;10.13;2.00;;;;;;;19.88;86.43;101950.69;10401786;28;19920;-82
2022/08/28 09:10:41;;;;;;;8.93;1.70;;;;;;;20.41;83.58;101946.34;10424020;28;20104;-81
2022/08/28 09:15:44;;;;;;;6.55;1.83;;;;;;;20.92;81.74;101951.41;10410955;28;20100;-80
2022/08/28 09:20:48;;;;;;;6.80;1.40;;;;;;;21.23;78.14;101939.78;10429518;28;20041;-80
2022/08/28 09:25:56;;;;;;;7.10;1.73;;;;;;;21.53;75.54;101945.00;10411136;28;20041;-76
2022/08/28 09:31:03;;;;;;;8.85;1.70;;;;;;;20.93;77.77;101972.66;10379582;28;20037;-75
2022/08/28 09:36:27;;;;;;;6.20;1.60;;;;;;;20.42;78.33;101978.75;10364903;28;20041;-77
2022/08/28 09:46:48;;;;;;;8.15;1.35;;;;;;;20.49;79.12;101987.66;10395386;28;20038;-77
2022/08/28 09:51:50;;;;;;;6.53;1.50;;;;;;;20.14;80.44;101975.66;10392039;28;20056;-76
2022/08/28 09:56:50;;;;;;;10.75;2.08;;;;;;;20.71;81.94;101974.03;10421285;28;20037;-77
2022/08/28 10:02:11;;;;;;;5.00;1.30;;;;;;;21.29;75.70;101966.59;10395039;28;20050;-76
2022/08/28 10:07:34;;;;;;;8.75;1.67;;;;;;;21.03;76.21;101980.94;10417242;28;20049;-77
2022/08/28 10:12:47;;;;;;;9.02;1.88;;;;;;;20.32;80.67;101991.72;10421252;28;20033;-78
2022/08/28 10:17:53;;;;;;;8.77;1.63;;;;;;;20.07;82.38;102009.53;10445050;28;20099;-77
2022/08/28 10:22:59;;;;;;;;;;;;;;;19.78;80.52;102012.22;10432612;28;20037;-78
2022/08/28 10:28:15;;;;;;;5.72;2.00;;;;;;;19.72;82.88;102016.19;10417307;28;19917;-79
2022/08/28 10:33:26;;;;;;;4.78;1.42;;;;;;;20.53;80.84;101988.72;10418150;28;20092;-79
2022/08/28 10:38:34;;;;;;;5.47;1.25;;;;;;;21.44;74.96;101969.22;10406995;28;20156;-79
2022/08/28 10:43:46;;;;;;;9.25;1.45;;;;;;;20.61;73.15;101962.94;10459344;28;20072;-75
2022/08/28 10:48:49;;;;;;;3.30;1.30;;;;;;;21.43;73.91;101950.75;10362287;28;20042;-76
2022/08/28 10:53:54;;;;;;;8.18;1.45;;;;;;;21.92;71.06;101962.63;10383232;28;20481;-77
2022/08/28 10:58:57;;;;;;;7.90;1.50;;;;;;;21.09;71.56;101945.31;10454772;28;20037;-77
2022/08/28 11:03:59;;;;;;;6.00;1.20;;;;;;;22.10;70.57;101963.75;10457485;28;20037;-76
2022/08/28 11:09:23;;;;;;;6.85;1.90;;;;;;;22.14;71.09;101964.81;10440814;28;20037;-82
2022/08/28 11:14:31;;;;;;;8.85;1.92;;;;;;;20.98;72.96;101989.41;10443411;28;20045;-75
2022/08/28 11:19:40;;;;;;;9.35;1.48;;;;;;;20.60;74.23;101994.84;10459683;28;20100;-78
2022/08/28 11:24:55;;;;;;;5.75;1.38;;;;;;;21.51;71.20;101969.69;10457765;28;20060;-77
2022/08/28 11:30:08;;;;;;;5.90;1.92;;;;;;;21.95;70.18;101982.50;10416050;28;20121;-77
2022/08/28 11:35:11;;;;;;;6.97;1.35;;;;;;;21.67;69.40;101983.47;10415268;28;20053;-84
2022/08/28 11:40:31;;;;;;;9.00;2.13;;;;;;;21.71;70.85;101957.34;10415406;28;20038;-79
2022/08/28 11:45:44;;;;;;;5.82;1.70;;;;;;;22.79;70.31;101988.34;10416151;28;20033;-76
2022/08/28 11:51:05;;;;;;;7.75;1.65;;;;;;;23.12;68.39;101975.88;10415771;28;20045;-80
2022/08/28 11:56:27;;;;;;;5.32;1.58;;;;;;;24.27;64.68;101968.19;10402961;28;20042;-82
2022/08/28 12:01:34;;;;;;;6.43;2.45;;;;;;;24.48;60.13;101953.56;10441843;28;20048;-84
2022/08/28 12:06:45;;;;;;;4.75;1.58;;;;;;;23.96;61.90;101974.59;10388761;28;20060;-82
2022/08/28 12:11:47;;;;;;;7.05;1.38;;;;;;;23.06;65.52;101979.94;10412198;28;20037;-81
2022/08/28 12:17:13;;;;;;;6.50;1.45;;;;;;;22.99;67.86;102002.00;10381803;28;20034;-78
2022/08/28 12:22:20;;;;;;;6.78;2.00;;;;;;;24.57;66.54;101989.06;10365391;28;20038;-77
2022/08/28 12:27:20;;;;;;;8.02;2.15;;;;;;;24.43;62.83;101979.03;10356987;28;20046;-80
2022/08/28 12:32:27;;;;;;;8.50;2.05;;;;;;;24.24;62.55;101991.31;10341116;28;20042;-78
2022/08/28 12:37:39;;;;;;;7.07;2.00;;;;;;;23.12;64.63;102001.19;10414832;28;20049;-77
2022/08/28 12:42:52;;;;;;;8.05;1.83;;;;;;;23.70;61.73;101976.31;10456835;28;20044;-76
2022/08/28 12:47:54;;;;;;;4.85;1.52;;;;;;;23.93;59.79;101935.84;10416068;28;20040;-75
2022/08/28 12:52:57;;;;;;;6.00;1.75;;;;;;;25.57;58.83;101976.34;10356887;28;20462;-77
2022/08/28 12:57:58;;;;;;;8.52;1.70;;;;;;;26.20;54.54;101950.63;10340323;28;20143;-75
2022/08/28 13:02:58;;;;;;;8.10;1.83;;;;;;;25.52;55.39;101968.03;10340103;28;20068;-75
2022/08/28 13:08:02;;;;;;;5.35;1.52;;;;;;;24.58;57.83;101973.03;10356263;28;20396;-77
2022/08/28 13:13:32;;;;;;;5.60;1.75;;;;;;;24.09;58.79;101980.47;10396152;28;20038;-78
2022/08/28 13:18:38;;;;;;;6.57;1.90;;;;;;;23.55;61.20;101992.38;10409094;28;20045;-75
2022/08/28 13:23:38;;;;;;;7.13;1.73;;;;;;;23.36;60.99;101972.03;10407814;28;20101;-79
2022/08/28 13:28:41;;;;;;;6.97;1.88;;;;;;;22.30;63.32;101915.75;10396053;28;20044;-80
2022/08/28 13:33:42;;;;;;;3.90;1.38;;;;;;;22.54;65.10;102004.53;10396856;28;20414;-76
2022/08/28 13:38:43;;;;;;;6.93;1.55;;;;;;;22.18;66.49;101999.50;10363207;28;20053;-83
2022/08/28 13:43:45;;;;;;;5.28;1.40;;;;;;;21.98;68.62;102011.06;10398445;28;20048;-79
2022/08/28 13:48:45;;;;;;;7.70;1.73;;;;;;;22.10;70.75;102014.22;10436617;28;20045;-82
2022/08/28 13:53:46;;;;;;;7.20;2.40;;;;;;;22.28;68.26;101948.03;10414295;28;20033;-82
2022/08/28 13:58:46;;;;;;;3.53;1.30;;;;;;;22.33;68.41;101990.84;10418030;28;20045;-83
2022/08/28 14:03:47;;;;;;;5.05;1.30;;;;;;;23.44;68.52;101976.91;10381084;28;20068;-84
2022/08/28 14:08:48;;;;;;;6.30;1.27;;;;;;;24.02;63.75;101968.81;10360066;28;20025;-85
2022/08/28 14:13:49;;;;;;;4.88;0.88;;;;;;;23.29;65.34;101980.03;10371277;28;20037;-86
2022/08/28 14:18:51;;;;;;;4.22;1.02;;;;;;;23.56;65.66;101982.81;10350999;28;20099;-84
2022/08/28 14:23:52;;;;;;;3.97;1.15;;;;;;;24.80;61.10;101963.69;10385355;28;20045;-85
2022/08/28 14:28:52;;;;;;;8.27;1.20;;;;;;;24.92;59.65;101965.88;10369555;28;20045;-77
2022/08/28 14:33:53;;;;;;;6.13;1.42;;;;;;;24.24;61.22;101974.44;10402981;28;20493;-83
2022/08/28 14:38:54;;;;;;;9.07;1.50;;;;;;;22.93;65.08;101980.75;10393153;28;20061;-72
2022/08/28 14:43:55;;;;;;;6.68;1.77;;;;;;;22.43;66.92;101981.44;10359245;28;20450;-83
2022/08/28 14:49:07;;;;;;;4.88;1.48;;;;;;;21.92;67.47;102002.72;10417700;28;20049;-85
2022/08/28 14:54:09;;;;;;;7.50;1.70;;;;;;;21.30;69.98;102007.50;10376582;28;20057;-82
2022/08/28 14:59:13;;;;;;;6.25;2.70;;;;;;;21.71;70.27;101996.59;10344401;28;20061;-85
2022/08/28 15:04:15;;;;;;;4.45;2.03;;;;;;;22.41;69.36;102006.16;10385240;28;20041;-84
2022/08/28 15:09:16;;;;;;;3.72;2.15;;;;;;;22.54;69.06;102001.72;10374151;28;20044;-86
2022/08/28 15:14:16;;;;;;;9.30;1.95;;;;;;;22.80;65.71;101974.00;10365644;28;20329;-83
2022/08/28 15:19:17;;;;;;;4.25;1.20;;;;;;;22.24;66.62;101998.31;10383115;28;20473;-87
2022/08/28 15:24:19;;;;;;;2.80;1.23;;;;;;;21.32;68.86;102006.03;10382092;28;20049;-84
2022/08/28 15:29:19;;;;;;;6.07;1.40;;;;;;;22.11;68.19;102002.69;10358552;28;20034;-85
2022/08/28 15:34:22;;;;;;;5.88;1.30;;;;;;;22.43;66.34;101984.25;10374570;28;20041;-84
2022/08/28 15:44:43;;;;;;;5.88;1.27;;;;;;;21.01;70.46;102015.97;10439475;28;20052;-78
2022/08/28 15:49:43;;;;;;;5.10;1.20;;;;;;;20.70;72.59;102021.88;10457922;28;20033;-81
2022/08/28 15:54:44;;;;;;;4.47;1.20;;;;;;;20.25;74.39;102021.97;10384065;28;20044;-78
2022/08/28 15:59:44;;;;;;;2.83;1.30;;;;;;;19.95;75.62;102018.28;10372051;28;20046;-78
2022/08/28 16:04:45;;;;;;;6.03;1.50;;;;;;;19.79;77.35;102018.69;10341148;28;20038;-76
2022/08/28 16:09:45;;;;;;;9.23;1.42;;;;;;;19.92;77.69;102046.78;10373219;28;20045;-79
2022/08/28 16:14:46;;;;;;;9.65;1.20;;;;;;;19.78;76.88;102023.41;10374230;28;20034;-78
2022/08/28 16:19:46;;;;;;;7.07;1.40;;;;;;;19.34;75.50;102010.22;10356730;28;20038;-75
2022/08/28 16:24:47;;;;;;;4.53;1.00;;;;;;;19.30;75.04;102020.28;10373762;28;20046;-74
2022/08/28 16:29:47;;;;;;;10.80;2.03;;;;;;;19.18;76.39;102022.56;10395367;28;20048;-74
2022/08/28 16:34:48;;;;;;;5.65;1.05;;;;;;;19.51;75.09;102007.91;10400947;28;20038;-76
2022/08/28 16:39:52;;;;;;;4.97;1.00;;;;;;;19.80;72.85;101987.63;10383800;28;20051;-76
2022/08/28 16:44:56;;;;;;;5.43;0.82;;;;;;;19.82;73.14;101985.38;10421216;28;20566;-74
2022/08/28 16:49:57;;;;;;;4.38;1.23;;;;;;;19.84;73.16;101999.91;10372623;28;20041;-75
2022/08/28 16:54:58;;;;;;;8.70;1.23;;;;;;;19.69;74.99;102002.78;10411750;28;20033;-75
2022/08/28 16:59:59;;;;;;;3.58;1.05;;;;;;;19.32;76.32;102010.50;10413749;28;20034;-75
2022/08/28 17:05:00;;;;;;;5.50;1.60;;;;;;;19.06;78.60;102015.34;10397685;28;20041;-72
2022/08/28 17:10:02;;;;;;;4.22;1.30;;;;;;;18.80;80.62;102008.16;10454271;28;20056;-74
2022/08/28 17:15:04;;;;;;;5.68;1.30;;;;;;;18.79;81.72;102023.22;10401227;28;20179;-78
2022/08/28 17:20:06;;;;;;;5.43;1.10;;;;;;;18.57;82.64;101999.25;10396729;28;20463;-75
2022/08/28 17:25:12;;;;;;;11.13;1.88;;;;;;;18.61;84.08;102017.09;10380801;28;20094;-75
2022/08/28 17:30:14;;;;;;;6.15;1.25;;;;;;;18.49;86.95;102022.13;10375963;28;20029;-75
2022/08/28 17:35:14;;;;;;;4.85;1.33;;;;;;;18.46;88.38;102020.75;10420652;28;20049;-77
2022/08/28 17:40:16;;;;;;;7.38;1.42;;;;;;;18.28;90.31;102007.38;10433745;28;20069;-75
2022/08/28 17:45:16;;;;;;;6.70;1.60;;;;;;;17.88;91.20;101973.63;10414493;28;20060;-75
2022/08/28 17:50:17;;;;;;;6.97;1.60;;;;;;;18.06;89.30;102038.28;10420347;28;20072;-76
2022/08/28 17:55:18;;;;;;;18.65;2.45;;;;;;;17.96;89.12;102025.16;10404242;28;20037;-76
2022/08/28 18:00:18;;;;;;;10.57;1.85;;;;;;;17.95;88.43;102029.06;10404284;28;20099;-76
2022/08/28 18:05:19;;;;;;;7.03;1.50;;;;;;;17.86;87.52;102034.34;10449460;28;20051;-75
2022/08/28 18:10:20;;;;;;;3.53;1.25;;;;;;;17.75;87.94;102027.03;10443369;28;20052;-75
2022/08/28 18:15:21;;;;;;;7.07;1.88;;;;;;;17.76;87.21;102034.28;10459087;28;20044;-75
2022/08/28 18:20:21;;;;;;;5.95;1.83;;;;;;;17.66;87.84;102031.47;10444330;28;20063;-75
2022/08/28 18:25:40;;;;;;;6.13;1.75;;;;;;;17.55;87.54;102033.41;10409354;28;20108;-75
2022/08/28 18:30:43;;;;;;;7.70;1.80;;;;;;;17.43;88.13;102019.72;10457156;28;20392;-76
2022/08/28 18:35:44;;;;;;;7.80;1.92;;;;;;;17.54;89.40;102057.59;10401664;28;20025;-75
2022/08/28 18:40:44;;;;;;;10.48;2.15;;;;;;;17.42;90.20;102037.50;10454071;28;20120;-75
2022/08/28 18:45:45;;;;;;;5.07;1.80;;;;;;;17.32;89.92;102037.47;10402175;28;20471;-75
2022/08/28 18:50:47;;;;;;;8.95;2.20;;;;;;;17.43;89.57;102067.03;10419204;28;20034;-76
2022/08/28 18:55:48;;;;;;;11.10;2.80;;;;;;;17.22;88.66;102037.41;10384824;28;20099;-76
2022/08/28 19:00:49;;;;;;;7.55;2.53;;;;;;;17.28;86.98;102044.69;10417989;28;20037;-76
2022/08/28 19:05:50;;;;;;;7.38;3.20;;;;;;;17.25;86.00;102059.97;10451648;28;20033;-77
2022/08/28 19:10:51;;;;;;;6.45;3.15;;;;;;;17.32;86.70;102062.50;10456178;28;20040;-76
2022/08/28 19:15:52;;;;;;;6.80;2.80;;;;;;;17.21;86.51;102052.44;10456600;28;20486;-77
2022/08/28 19:21:10;;;;;;;5.93;2.65;;;;;;;17.17;86.09;102046.59;10434431;28;20065;-76
2022/08/28 19:26:11;;;;;;;8.32;2.20;;;;;;;17.21;85.92;102058.03;10399937;28;20038;-76
2022/08/28 19:31:12;;;;;;;8.48;2.78;;;;;;;17.11;86.65;102054.06;10416011;28;20049;-76
2022/08/28 19:36:13;;;;;;;11.35;3.45;;;;;;;17.05;87.22;102057.09;10418130;28;20080;-75
2022/08/28 19:41:13;;;;;;;6.78;2.60;;;;;;;17.09;87.13;102067.41;10366581;28;20037;-75
2022/08/28 19:46:15;;;;;;;6.72;2.65;;;;;;;16.96;86.88;102051.19;10417413;28;20083;-75
2022/08/28 19:51:16;;;;;;;6.50;2.50;;;;;;;17.03;87.25;102062.94;10398434;28;20061;-75
2022/08/28 19:56:22;;;;;;;6.22;3.15;;;;;;;17.02;86.83;102075.16;10426697;28;20038;-76
2022/08/28 20:01:24;;;;;;;8.43;2.85;;;;;;;16.97;86.64;102071.50;10375055;28;20041;-75
2022/08/28 20:06:25;;;;;;;9.93;3.25;;;;;;;16.91;86.94;102067.88;10387360;28;20045;-75
2022/08/28 20:11:25;;;;;;;7.72;2.60;;;;;;;16.97;87.06;102083.50;10356871;28;20096;-76
2022/08/28 20:16:26;;;;;;;5.97;2.80;;;;;;;16.90;87.57;102074.53;10372923;28;20096;-76
2022/08/28 20:21:27;;;;;;;9.13;2.80;;;;;;;16.91;87.65;102076.22;10381083;28;20589;-76
2022/08/28 20:26:27;;;;;;;6.70;2.47;;;;;;;16.84;87.48;102083.94;10373088;28;20113;-74
2022/08/28 20:31:28;;;;;;;8.73;2.80;;;;;;;16.80;88.17;102075.25;10369194;28;20036;-76
2022/08/28 20:36:28;;;;;;;5.90;3.08;;;;;;;16.78;88.58;102091.38;10371141;28;20109;-76
2022/08/28 20:41:29;;;;;;;5.55;3.22;;;;;;;16.72;89.31;102082.16;10370603;28;20042;-75
2022/08/28 20:46:30;;;;;;;5.30;2.50;;;;;;;16.62;89.87;102082.09;10368409;28;20037;-76
2022/08/28 20:56:50;;;;;;;13.95;3.05;;;;;;;16.64;91.33;102091.00;10384960;28;20030;-76
2022/08/28 21:01:51;;;;;;;6.97;2.17;;;;;;;16.62;91.89;102098.78;10386502;28;20034;-76
2022/08/28 21:06:52;;;;;;;7.75;2.97;;;;;;;16.59;93.39;102109.56;10369545;28;20134;-76
2022/08/28 21:11:52;;;;;;;10.57;2.45;;;;;;;16.47;95.21;102085.56;10372156;28;20072;-77
2022/08/28 21:16:53;;;;;;;7.38;2.40;;;;;;;16.43;96.15;102078.00;10368941;28;20038;-75
2022/08/28 21:21:54;;;;;;;4.53;2.22;;;;;;;16.56;96.69;102088.72;10370210;28;20065;-76
2022/08/28 21:26:56;;;;;;;7.78;2.85;;;;;;;16.55;96.49;102087.00;10369855;28;20046;-76
2022/08/28 21:31:57;;;;;;;6.68;2.13;;;;;;;16.51;95.63;102088.66;10391543;28;20587;-76
2022/08/28 21:36:57;;;;;;;5.07;2.03;;;;;;;16.43;95.98;102080.78;10378539;28;20029;-76
2022/08/28 21:41:58;;;;;;;3.53;2.05;;;;;;;16.28;96.85;102081.50;10411965;28;20041;-75
2022/08/28 21:46:58;;;;;;;6.07;2.10;;;;;;;16.27;97.24;102093.72;10378475;28;20045;-76
2022/08/28 21:51:59;;;;;;;10.88;2.30;;;;;;;16.21;99.41;102094.78;10381708;28;20029;-75
2022/08/28 21:57:00;;;;;;;8.88;2.65;;;;;;;16.01;100.00;102065.66;10392594;28;20068;-75
2022/08/28 22:02:01;;;;;;;6.90;2.80;;;;;;;16.07;100.00;102086.00;10372346;28;20125;-76
2022/08/28 22:07:01;;;;;;;4.70;2.92;;;;;;;16.07;100.00;102091.56;10347611;28;20041;-74
2022/08/28 22:12:02;;;;;;;9.20;3.28;;;;;;;15.75;100.00;102039.59;10392449;28;20037;-76
2022/08/28 22:17:04;;;;;;;6.15;2.15;;;;;;;16.11;100.00;102095.50;10361204;28;20030;-75
2022/08/28 22:27:24;;;;;;;9.02;2.70;;;;;;;16.16;100.00;102095.53;10383633;28;20057;-76
2022/08/28 22:32:25;;;;;;;5.75;1.90;;;;;;;16.21;100.00;102103.13;10377019;28;20037;-75
2022/08/28 22:37:26;;;;;;;8.90;2.58;;;;;;;16.18;100.00;102110.00;10377244;28;20045;-76
2022/08/28 22:42:26;;;;;;;4.75;2.03;;;;;;;15.91;100.00;102073.91;10376775;28;20482;-75
2022/08/28 22:47:27;;;;;;;7.50;2.00;;;;;;;16.09;100.00;102108.81;10377110;28;20117;-76
2022/08/28 22:52:28;;;;;;;10.82;2.58;;;;;;;15.93;100.00;102089.19;10376113;28;20497;-75
2022/08/28 22:57:28;;;;;;;4.90;2.28;;;;;;;16.05;100.00;102111.28;10390340;28;20026;-76
2022/08/28 23:02:29;;;;;;;10.02;2.50;;;;;;;16.08;100.00;102116.31;10375394;28;20042;-75
2022/08/28 23:07:29;;;;;;;5.75;2.65;;;;;;;16.07;100.00;102116.56;10375773;28;20033;-74
2022/08/28 23:12:30;;;;;;;5.05;2.22;;;;;;;15.99;100.00;102094.81;10369639;28;20052;-75
2022/08/28 23:17:30;;;;;;;5.22;2.38;;;;;;;16.00;100.00;102099.25;10375623;28;20041;-76
2022/08/28 23:22:31;;;;;;;5.97;2.25;;;;;;;16.08;100.00;102110.75;10350520;28;20045;-76
2022/08/28 23:27:31;;;;;;;7.13;2.78;;;;;;;16.08;100.00;102115.47;10378865;28;20029;-76